createdAt,value
2023-01-19T00:03:16.388Z,98183.22
2023-01-19T00:08:17.518Z,98170.94
2023-01-19T00:13:09.207Z,98173.13
2023-01-19T00:18:01.119Z,98176.78
2023-01-19T00:22:53.044Z,98173.47
2023-01-19T00:27:49.439Z,98183.72
2023-01-19T00:32:41.664Z,98192.91
2023-01-19T00:37:33.473Z,98189.81
2023-01-19T00:42:40.314Z,98194.50
2023-01-19T00:47:32.905Z,98197.34
2023-01-19T00:52:24.650Z,98201.50
2023-01-19T00:57:16.869Z,98194.88
2023-01-19T01:02:08.814Z,98192.59
2023-01-19T01:07:00.694Z,98190.97
2023-01-19T01:11:52.489Z,98191.34
2023-01-19T01:16:44.690Z,98191.16
2023-01-19T01:21:37.373Z,98205.09
2023-01-19T01:26:29.187Z,98190.13
2023-01-19T01:31:21.013Z,98209.81
2023-01-19T01:36:12.791Z,98196.50
2023-01-19T01:41:05.160Z,98200.16
2023-01-19T01:45:56.866Z,98203.19
2023-01-19T01:51:12.736Z,98195.59
2023-01-19T01:56:09.869Z,98217.28
2023-01-19T02:01:20.795Z,98216.28
2023-01-19T02:06:13.995Z,98208.28
2023-01-19T02:11:25.381Z,98199.63
2023-01-19T02:16:17.908Z,98197.44
2023-01-19T02:21:38.833Z,98204.69
2023-01-19T02:26:44.523Z,98205.31
2023-01-19T02:31:39.206Z,98202.69
2023-01-19T02:36:56.319Z,98191.84
2023-01-19T02:42:00.757Z,98192.47
2023-01-19T02:46:54.494Z,98195.41
2023-01-19T02:51:46.364Z,98183.16
2023-01-19T02:56:53.131Z,98176.78
2023-01-19T03:01:54.190Z,98171.03
2023-01-19T03:07:08.690Z,98170.66
2023-01-19T03:12:41.890Z,98169.91
2023-01-19T03:17:36.355Z,98180.19
2023-01-19T03:22:32.891Z,98174.91
2023-01-19T03:27:30.545Z,98171.88
2023-01-19T03:32:29.866Z,98172.09
2023-01-19T03:37:23.093Z,98156.69
2023-01-19T03:42:18.250Z,98171.31
2023-01-19T03:47:11.858Z,98177.94
2023-01-19T03:52:04.352Z,98177.94
2023-01-19T03:56:56.162Z,98160.25
2023-01-19T04:01:48.474Z,98154.09
2023-01-19T04:06:40.150Z,98146.91
2023-01-19T04:11:32.448Z,98153.44
2023-01-19T04:16:24.374Z,98144.41
2023-01-19T04:21:17.115Z,98160.59
2023-01-19T04:26:09.840Z,98161.75
2023-01-19T04:31:02.461Z,98155.34
2023-01-19T04:35:54.740Z,98149.59
2023-01-19T04:40:48.681Z,98141.97
2023-01-19T04:45:42.842Z,98143.75
2023-01-19T04:50:34.837Z,98144.91
2023-01-19T04:55:26.729Z,98144.00
2023-01-19T05:00:18.954Z,98147.63
2023-01-19T05:05:11.989Z,98138.56
2023-01-19T05:10:04.352Z,98138.75
2023-01-19T05:14:58.179Z,98137.25
2023-01-19T05:19:50.173Z,98143.78
2023-01-19T05:24:42.064Z,98144.16
2023-01-19T05:29:34.423Z,98146.94
2023-01-19T05:34:26.786Z,98151.63
2023-01-19T05:39:18.626Z,98148.78
2023-01-19T05:44:10.501Z,98126.44
2023-01-19T05:49:04.348Z,98127.16
2023-01-19T05:53:55.996Z,98122.06
2023-01-19T05:58:47.742Z,98119.63
2023-01-19T06:03:41.995Z,98126.25
2023-01-19T06:08:33.908Z,98120.91
2023-01-19T06:13:25.759Z,98130.38
2023-01-19T06:18:17.683Z,98138.81
2023-01-19T06:23:11.043Z,98122.63
2023-01-19T06:28:03.002Z,98134.50
2023-01-19T06:32:54.980Z,98121.72
2023-01-19T06:37:46.593Z,98127.63
2023-01-19T06:42:38.621Z,98128.88
2023-01-19T06:47:30.759Z,98136.41
2023-01-19T06:52:22.696Z,98136.41
2023-01-19T06:57:14.633Z,98155.91
2023-01-19T07:02:27.518Z,98177.88
2023-01-19T07:07:18.983Z,98179.97
2023-01-19T07:12:10.680Z,98179.41
2023-01-19T07:17:03.099Z,98159.53
2023-01-19T07:21:54.771Z,98157.47
2023-01-19T07:26:47.535Z,98161.34
2023-01-19T07:31:39.888Z,98164.22
2023-01-19T07:36:31.789Z,98179.63
2023-01-19T07:41:23.464Z,98194.06
2023-01-19T07:46:15.212Z,98206.41
2023-01-19T07:51:11.756Z,98208.31
2023-01-19T07:56:07.718Z,98201.13
2023-01-19T08:00:59.675Z,98198.88
2023-01-19T08:05:53.286Z,98196.88
2023-01-19T08:10:45.374Z,98211.44
2023-01-19T08:15:37.697Z,98226.69
2023-01-19T08:20:29.982Z,98222.25
2023-01-19T08:25:21.823Z,98231.97
2023-01-19T08:30:13.739Z,98229.16
2023-01-19T08:35:06.280Z,98226.19
2023-01-19T08:39:57.964Z,98218.59
2023-01-19T08:44:57.598Z,98208.41
2023-01-19T08:49:49.972Z,98218.13
2023-01-19T08:54:41.698Z,98231.50
2023-01-19T08:59:33.478Z,98235.28
2023-01-19T09:04:25.276Z,98232.22
2023-01-19T09:09:17.095Z,98240.63
2023-01-19T09:14:08.739Z,98252.13
2023-01-19T09:19:00.594Z,98252.13
2023-01-19T09:23:52.337Z,98250.50
2023-01-19T09:28:43.977Z,98238.78
2023-01-19T09:33:35.870Z,98246.88
2023-01-19T09:38:31.575Z,98254.59
2023-01-19T09:43:45.430Z,98249.13
2023-01-19T09:48:54.200Z,98257.78
2023-01-19T09:53:57.809Z,98253.06
2023-01-19T09:58:51.783Z,98257.09
2023-01-19T10:03:43.577Z,98256.53
2023-01-19T10:08:47.355Z,98254.88
2023-01-19T10:13:51.903Z,98271.81
2023-01-19T10:18:52.175Z,98274.97
2023-01-19T10:23:58.787Z,98287.16
2023-01-19T10:29:01.912Z,98298.91
2023-01-19T10:33:54.501Z,98301.38
2023-01-19T10:38:47.652Z,98305.91
2023-01-19T10:43:39.815Z,98307.16
2023-01-19T10:48:39.127Z,98325.72
2023-01-19T10:53:30.874Z,98319.72
2023-01-19T10:58:31.129Z,98319.09
2023-01-19T11:03:25.316Z,98323.78
2023-01-19T11:08:29.539Z,98319.59
2023-01-19T11:13:21.284Z,98325.53
2023-01-19T11:18:27.720Z,98316.03
2023-01-19T11:23:43.986Z,98313.84
2023-01-19T11:28:40.571Z,98316.19
2023-01-19T11:33:41.125Z,98324.56
2023-01-19T11:38:40.050Z,98312.81
2023-01-19T11:43:43.471Z,98311.44
2023-01-19T11:48:45.321Z,98310.41
2023-01-19T11:53:37.772Z,98310.72
2023-01-19T11:58:32.888Z,98306.09
2023-01-19T12:04:06.319Z,98305.41
2023-01-19T12:09:13.130Z,98308.81
2023-01-19T12:14:07.224Z,98302.94
2023-01-19T12:19:03.649Z,98302.69
2023-01-19T12:24:04.512Z,98294.09
2023-01-19T12:29:13.413Z,98286.00
2023-01-19T12:34:25.181Z,98295.34
2023-01-19T12:39:25.451Z,98290.41
2023-01-19T12:44:24.140Z,98296.94
2023-01-19T12:49:47.123Z,98306.81
2023-01-19T12:54:43.611Z,98304.19
2023-01-19T12:59:37.608Z,98310.41
2023-01-19T13:04:31.711Z,98308.22
2023-01-19T13:09:30.549Z,98319.53
2023-01-19T13:14:36.823Z,98303.69
2023-01-19T13:19:41.870Z,98310.56
2023-01-19T13:25:05.627Z,98316.16
2023-01-19T13:29:57.691Z,98315.34
2023-01-19T13:34:54.843Z,98313.09
2023-01-19T13:39:50.137Z,98306.97
2023-01-19T13:44:47.299Z,98327.31
2023-01-19T13:49:45.774Z,98317.59
2023-01-19T13:54:37.551Z,98317.22
2023-01-19T13:59:29.376Z,98321.75
2023-01-19T14:04:29.993Z,98327.78
2023-01-19T14:09:22.176Z,98328.88
2023-01-19T14:14:27.943Z,98338.19
2023-01-19T14:19:20.324Z,98343.41
2023-01-19T14:24:19.938Z,98347.66
2023-01-19T14:29:18.581Z,98362.56
2023-01-19T14:34:37.290Z,98366.94
2023-01-19T14:39:33.407Z,98376.28
2023-01-19T14:44:40.688Z,98374.44
2023-01-19T14:49:41.157Z,98386.69
2023-01-19T14:54:40.580Z,98381.75
2023-01-19T14:59:32.643Z,98398.19
2023-01-19T15:04:26.656Z,98397.13
2023-01-19T15:09:18.322Z,98412.00
2023-01-19T15:14:18.782Z,98419.06
2023-01-19T15:19:15.827Z,98427.75
2023-01-19T15:24:10.846Z,98415.03
2023-01-19T15:29:02.875Z,98420.28
2023-01-19T15:33:54.640Z,98429.81
2023-01-19T15:38:47.190Z,98436.66
2023-01-19T15:43:38.971Z,98443.91
2023-01-19T15:48:30.636Z,98464.34
2023-01-19T15:53:24.201Z,98473.38
2023-01-19T15:58:15.957Z,98479.75
2023-01-19T16:03:07.938Z,98480.97
2023-01-19T16:08:01.773Z,98492.06
2023-01-19T16:12:53.779Z,98494.94
2023-01-19T16:17:45.588Z,98504.97
2023-01-19T16:22:37.890Z,98502.91
2023-01-19T16:27:29.574Z,98507.19
2023-01-19T16:32:21.263Z,98514.78
2023-01-19T16:37:12.995Z,98516.56
2023-01-19T16:42:04.828Z,98515.19
2023-01-19T16:46:56.569Z,98539.06
2023-01-19T16:51:49.228Z,98532.00
2023-01-19T16:56:41.563Z,98538.91
2023-01-19T17:01:33.871Z,98539.69
2023-01-19T17:06:25.745Z,98546.44
2023-01-19T17:11:24.463Z,98554.41
2023-01-19T17:16:16.479Z,98554.94
2023-01-19T17:21:10.047Z,98571.47
2023-01-19T17:26:02.193Z,98569.75
2023-01-19T17:30:54.213Z,98568.03
2023-01-19T17:35:46.929Z,98573.75
2023-01-19T17:40:39.614Z,98577.47
2023-01-19T17:45:31.951Z,98580.69
2023-01-19T17:50:23.635Z,98575.63
2023-01-19T17:55:15.871Z,98587.38
2023-01-19T18:00:08.510Z,98603.69
2023-01-19T18:05:02.565Z,98611.00
2023-01-19T18:09:56.581Z,98610.50
2023-01-19T18:14:48.644Z,98611.06
2023-01-19T18:19:40.333Z,98621.13
2023-01-19T18:24:32.007Z,98614.22
2023-01-19T18:29:23.748Z,98611.66
2023-01-19T18:34:15.578Z,98619.66
2023-01-19T18:39:09.454Z,98636.25
2023-01-19T18:44:01.226Z,98637.44
2023-01-19T18:48:53.120Z,98638.63
2023-01-19T18:53:45.630Z,98630.88
2023-01-19T18:58:38.648Z,98631.44
2023-01-19T19:03:30.457Z,98628.31
2023-01-19T19:08:22.623Z,98639.34
2023-01-19T19:13:17.365Z,98649.53
2023-01-19T19:18:09.969Z,98657.44
2023-01-19T19:23:01.773Z,98666.94
2023-01-19T19:27:53.497Z,98664.91
2023-01-19T19:32:45.499Z,98662.59
2023-01-19T19:37:37.351Z,98671.63
2023-01-19T19:42:30.209Z,98678.63
2023-01-19T19:47:21.939Z,98676.22
2023-01-19T19:52:13.600Z,98683.50
2023-01-19T19:57:05.275Z,98685.47
2023-01-19T20:01:57.108Z,98702.25
2023-01-19T20:06:49.330Z,98710.34
2023-01-19T20:11:42.160Z,98714.78
2023-01-19T20:16:34.200Z,98714.53
2023-01-19T20:21:33.954Z,98720.59
2023-01-19T20:26:28.957Z,98718.22
2023-01-19T20:31:32.678Z,98723.84
2023-01-19T20:36:25.411Z,98731.31
2023-01-19T20:41:17.585Z,98745.78
2023-01-19T20:46:09.625Z,98737.03
2023-01-19T20:51:06.596Z,98748.38
2023-01-19T20:55:58.375Z,98757.00
2023-01-19T21:00:50.886Z,98771.88
2023-01-19T21:05:42.613Z,98773.72
2023-01-19T21:10:34.806Z,98789.84
2023-01-19T21:15:26.541Z,98778.59
2023-01-19T21:20:19.492Z,98787.91
2023-01-19T21:25:11.631Z,98794.53
2023-01-19T21:30:03.789Z,98802.38
2023-01-19T21:34:55.527Z,98796.38
2023-01-19T21:39:47.261Z,98800.56
2023-01-19T21:44:38.915Z,98806.34
2023-01-19T21:49:31.127Z,98804.31
2023-01-19T21:54:22.919Z,98817.13
2023-01-19T21:59:16.002Z,98814.44
2023-01-19T22:04:08.002Z,98814.63
2023-01-19T22:09:00.982Z,98818.63
2023-01-19T22:13:53.339Z,98831.44
2023-01-19T22:18:50.395Z,98833.91
2023-01-19T22:23:44.506Z,98831.44
2023-01-19T22:28:36.804Z,98841.56
2023-01-19T22:33:29.137Z,98848.22
2023-01-19T22:38:20.737Z,98850.72
2023-01-19T22:43:12.577Z,98863.06
2023-01-19T22:48:04.414Z,98868.22
2023-01-19T22:52:56.829Z,98865.38
2023-01-19T22:57:48.467Z,98873.03
2023-01-19T23:02:40.262Z,98879.66
2023-01-19T23:07:32.127Z,98885.84
2023-01-19T23:12:24.340Z,98886.69
2023-01-19T23:17:16.079Z,98886.50
2023-01-19T23:22:07.973Z,98894.97
2023-01-19T23:27:01.605Z,98888.81
2023-01-19T23:31:53.807Z,98894.44
2023-01-19T23:36:45.960Z,98894.06
2023-01-19T23:41:37.667Z,98903.75
2023-01-19T23:46:30.013Z,98896.56
2023-01-19T23:51:26.808Z,98901.91
2023-01-19T23:56:33.464Z,98908.94
